createdAt,value
2019-05-10T00:00:43.150Z,2.97
2019-05-10T00:03:30.298Z,3.07
2019-05-10T00:06:17.497Z,2.63
2019-05-10T00:08:46.548Z,3.10
2019-05-10T00:11:38.564Z,2.80
2019-05-10T00:14:42.406Z,3.87
2019-05-10T00:17:16.266Z,4.07
2019-05-10T00:19:46.170Z,4.63
2019-05-10T00:22:16.005Z,3.33
2019-05-10T00:25:01.682Z,3.80
2019-05-10T00:27:17.344Z,3.40
2019-05-10T00:29:47.213Z,7.30
2019-05-10T00:32:18.035Z,3.73
2019-05-10T00:34:47.852Z,4.53
2019-05-10T00:37:17.674Z,4.40
2019-05-10T00:39:47.461Z,4.50
2019-05-10T00:42:17.091Z,3.87
2019-05-10T00:44:46.903Z,3.80
2019-05-10T00:47:16.630Z,3.23
2019-05-10T00:49:46.363Z,4.83
2019-05-10T00:52:16.050Z,3.00
2019-05-10T00:54:45.737Z,3.30
2019-05-10T00:57:15.571Z,4.03
2019-05-10T00:59:45.309Z,5.23
2019-05-10T01:02:15.017Z,6.47
2019-05-10T01:04:44.717Z,4.30
2019-05-10T01:07:14.419Z,3.43
2019-05-10T01:09:44.101Z,3.77
2019-05-10T01:12:13.801Z,5.23
2019-05-10T01:14:43.490Z,4.67
2019-05-10T01:17:13.168Z,4.33
2019-05-10T01:19:43.090Z,5.13
2019-05-10T01:22:12.757Z,4.87
2019-05-10T01:24:42.457Z,4.73
2019-05-10T01:27:12.198Z,4.00
2019-05-10T01:29:41.950Z,3.53
2019-05-10T01:32:11.645Z,5.40
2019-05-10T01:34:41.427Z,6.53
2019-05-10T01:37:11.147Z,3.87
2019-05-10T01:39:40.880Z,3.87
2019-05-10T01:42:10.650Z,4.77
2019-05-10T01:44:40.347Z,3.53
2019-05-10T01:47:10.103Z,3.63
2019-05-10T01:49:39.812Z,3.00
2019-05-10T01:52:09.537Z,5.53
2019-05-10T01:54:39.228Z,4.53
2019-05-10T01:57:08.973Z,4.07
2019-05-10T01:59:38.643Z,7.80
2019-05-10T02:02:08.302Z,4.33
2019-05-10T02:04:37.995Z,6.50
2019-05-10T02:07:07.801Z,6.30
2019-05-10T02:09:37.504Z,5.23
2019-05-10T02:12:07.242Z,6.13
2019-05-10T02:14:37.048Z,5.67
2019-05-10T02:17:06.734Z,6.67
2019-05-10T02:19:36.486Z,4.03
2019-05-10T02:22:06.248Z,4.90
2019-05-10T02:24:35.902Z,6.40
2019-05-10T02:27:05.575Z,4.90
2019-05-10T02:29:35.234Z,4.60
2019-05-10T02:32:05.014Z,3.93
2019-05-10T02:34:34.681Z,5.63
2019-05-10T02:37:04.436Z,3.50
2019-05-10T02:39:34.101Z,5.80
2019-05-10T02:42:03.924Z,3.43
2019-05-10T02:44:33.600Z,4.07
2019-05-10T02:47:04.363Z,3.33
2019-05-10T02:49:34.011Z,3.83
2019-05-10T02:52:03.829Z,3.83
2019-05-10T02:54:34.063Z,4.87
2019-05-10T02:57:04.776Z,2.97
2019-05-10T02:59:34.761Z,2.93
2019-05-10T03:02:06.721Z,2.87
2019-05-10T03:04:37.611Z,3.30
2019-05-10T03:07:07.662Z,3.33
2019-05-10T03:09:37.567Z,3.13
2019-05-10T03:12:23.051Z,3.40
2019-05-10T03:14:54.911Z,2.77
2019-05-10T03:17:25.143Z,3.67
2019-05-10T03:19:55.105Z,5.17
2019-05-10T03:22:26.938Z,4.33
2019-05-10T03:24:56.612Z,4.87
2019-05-10T03:27:26.486Z,5.13
2019-05-10T03:29:56.267Z,4.90
2019-05-10T03:32:26.038Z,4.20
2019-05-10T03:34:55.867Z,5.50
2019-05-10T03:37:26.118Z,6.77
2019-05-10T03:39:56.083Z,5.97
2019-05-10T03:42:25.961Z,7.53
2019-05-10T03:44:55.671Z,6.93
2019-05-10T03:47:25.423Z,9.70
2019-05-10T03:49:55.072Z,8.77
2019-05-10T03:52:24.763Z,9.13
2019-05-10T03:54:54.493Z,10.83
2019-05-10T03:57:24.218Z,9.30
2019-05-10T03:59:53.875Z,12.97
2019-05-10T04:02:23.570Z,11.43
2019-05-10T04:04:53.319Z,12.53
2019-05-10T04:07:22.997Z,11.17
2019-05-10T04:09:52.764Z,10.97
2019-05-10T04:12:22.500Z,11.33
2019-05-10T04:14:52.154Z,13.43
2019-05-10T04:17:21.866Z,10.03
2019-05-10T04:19:51.540Z,12.40
2019-05-10T04:22:21.261Z,13.47
2019-05-10T04:24:50.933Z,11.23
2019-05-10T04:27:31.796Z,11.10
2019-05-10T04:29:51.971Z,12.10
2019-05-10T04:32:21.662Z,14.73
2019-05-10T04:34:51.302Z,16.33
2019-05-10T04:37:21.010Z,12.03
2019-05-10T04:39:50.686Z,13.07
2019-05-10T04:42:20.362Z,13.67
2019-05-10T04:44:53.187Z,11.50
2019-05-10T04:47:21.472Z,14.77
2019-05-10T04:49:51.180Z,16.43
2019-05-10T04:52:20.888Z,14.27
2019-05-10T04:54:50.538Z,15.20
2019-05-10T04:57:20.257Z,14.93
2019-05-10T04:59:50.160Z,16.60
2019-05-10T05:02:22.324Z,13.93
2019-05-10T05:04:51.242Z,13.87
2019-05-10T05:07:20.942Z,21.70
2019-05-10T05:09:50.622Z,18.10
2019-05-10T05:12:20.339Z,19.50
2019-05-10T05:14:50.030Z,21.30
2019-05-10T05:17:20.698Z,19.23
2019-05-10T05:19:50.391Z,16.83
2019-05-10T05:22:20.177Z,17.23
2019-05-10T05:24:49.938Z,18.27
2019-05-10T05:27:19.635Z,14.83
2019-05-10T05:29:49.347Z,18.27
2019-05-10T05:32:19.000Z,16.00
2019-05-10T05:34:48.733Z,19.77
2019-05-10T05:37:18.465Z,17.60
2019-05-10T05:39:48.538Z,19.60
2019-05-10T05:42:22.313Z,14.67
2019-05-10T05:44:49.699Z,13.87
2019-05-10T05:47:19.445Z,13.20
2019-05-10T05:49:58.511Z,14.50
2019-05-10T05:52:26.802Z,14.30
2019-05-10T05:54:57.643Z,15.23
2019-05-10T05:57:29.671Z,14.43
2019-05-10T06:00:04.345Z,14.17
2019-05-10T06:02:30.767Z,13.97
2019-05-10T06:05:00.568Z,14.57
2019-05-10T06:07:31.142Z,14.90
2019-05-10T06:10:01.740Z,15.23
2019-05-10T06:12:31.512Z,18.83
2019-05-10T06:15:01.216Z,15.77
2019-05-10T06:17:31.737Z,19.73
2019-05-10T06:20:05.884Z,19.60
2019-05-10T06:22:38.163Z,16.23
2019-05-10T06:25:04.966Z,17.10
2019-05-10T06:27:35.336Z,17.50
2019-05-10T06:30:07.467Z,24.17
2019-05-10T06:32:37.246Z,17.37
2019-05-10T06:35:07.126Z,22.73
2019-05-10T06:37:36.925Z,23.17
2019-05-10T06:40:08.764Z,23.90
2019-05-10T06:42:38.517Z,19.80
2019-05-10T06:45:14.254Z,27.60
2019-05-10T06:47:42.008Z,18.20
2019-05-10T06:50:12.910Z,19.30
2019-05-10T06:52:42.636Z,21.07
2019-05-10T06:55:12.569Z,21.33
2019-05-10T06:57:42.248Z,18.30
2019-05-10T07:00:12.783Z,24.27
2019-05-10T07:02:42.479Z,22.03
2019-05-10T07:05:12.603Z,21.10
2019-05-10T07:07:44.755Z,23.23
2019-05-10T07:10:19.184Z,21.20
2019-05-10T07:12:45.683Z,27.90
2019-05-10T07:15:15.760Z,28.90
2019-05-10T07:17:47.159Z,26.27
2019-05-10T07:20:17.838Z,32.03
2019-05-10T07:22:47.581Z,23.73
2019-05-10T07:25:17.366Z,25.87
2019-05-10T07:27:50.337Z,26.50
2019-05-10T07:30:30.439Z,31.20
2019-05-10T07:33:01.999Z,27.80
2019-05-10T07:35:36.736Z,24.97
2019-05-10T07:38:03.251Z,28.17
2019-05-10T07:40:32.986Z,22.90
2019-05-10T07:43:02.683Z,28.90
2019-05-10T07:45:32.488Z,30.90
2019-05-10T07:48:07.508Z,30.73
2019-05-10T07:50:33.607Z,27.37
2019-05-10T07:53:03.347Z,28.33
2019-05-10T07:55:33.038Z,28.00
2019-05-10T07:58:04.955Z,23.30
2019-05-10T08:00:38.057Z,26.47
2019-05-10T08:03:15.239Z,24.30
2019-05-10T08:05:39.077Z,24.40
2019-05-10T08:08:09.555Z,21.50
2019-05-10T08:10:39.608Z,22.33
2019-05-10T08:13:09.238Z,24.27
2019-05-10T08:15:39.034Z,24.23
2019-05-10T08:18:09.844Z,21.33
2019-05-10T08:20:49.599Z,19.83
2019-05-10T08:23:13.091Z,18.53
2019-05-10T08:25:46.770Z,15.80
2019-05-10T08:28:15.241Z,16.43
2019-05-10T08:30:58.902Z,14.23
2019-05-10T08:33:18.035Z,12.77
2019-05-10T08:35:52.543Z,12.53
2019-05-10T08:38:21.739Z,14.40
2019-05-10T08:40:52.709Z,10.53
2019-05-10T08:43:24.655Z,10.50
2019-05-10T08:45:53.675Z,10.23
2019-05-10T08:48:23.556Z,9.53
2019-05-10T08:50:57.489Z,9.40
2019-05-10T08:53:24.768Z,8.87
2019-05-10T08:55:54.475Z,11.43
2019-05-10T08:58:31.242Z,11.37
2019-05-10T09:01:14.675Z,9.23
2019-05-10T09:03:27.008Z,8.90
2019-05-10T09:05:56.764Z,8.17
2019-05-10T09:08:28.561Z,10.23
2019-05-10T09:10:57.857Z,10.03
2019-05-10T09:13:28.675Z,8.37
2019-05-10T09:15:58.980Z,12.50
2019-05-10T09:18:28.720Z,8.70
2019-05-10T09:21:08.193Z,7.90
2019-05-10T09:23:32.682Z,7.67
2019-05-10T09:26:10.717Z,13.07
2019-05-10T09:28:34.043Z,8.50
2019-05-10T09:31:17.380Z,9.27
2019-05-10T09:33:35.229Z,7.67
2019-05-10T09:36:06.227Z,9.67
2019-05-10T09:38:39.271Z,11.23
2019-05-10T09:41:07.566Z,8.50
2019-05-10T09:43:42.455Z,7.00
2019-05-10T09:46:08.635Z,6.63
2019-05-10T09:48:38.350Z,8.53
2019-05-10T09:51:08.047Z,4.97
2019-05-10T09:53:38.446Z,5.40
2019-05-10T09:56:08.266Z,3.87
2019-05-10T09:58:38.767Z,3.47
2019-05-10T10:01:17.762Z,4.23
2019-05-10T10:03:43.522Z,6.20
2019-05-10T10:06:11.805Z,3.33
2019-05-10T10:08:43.324Z,7.13
2019-05-10T10:11:15.904Z,6.47
2019-05-10T10:13:50.202Z,5.30
2019-05-10T10:16:15.979Z,6.00
2019-05-10T10:18:47.665Z,5.80
2019-05-10T10:21:18.814Z,7.13
2019-05-10T10:23:48.826Z,5.30
2019-05-10T10:26:22.392Z,6.73
2019-05-10T10:28:55.087Z,5.03
2019-05-10T10:31:29.531Z,8.43
2019-05-10T10:33:58.333Z,6.40
2019-05-10T10:36:27.212Z,6.13
2019-05-10T10:38:55.862Z,4.57
2019-05-10T10:41:27.386Z,6.33
2019-05-10T10:43:58.386Z,4.20
2019-05-10T10:46:28.339Z,7.37
2019-05-10T10:48:58.020Z,7.37
2019-05-10T10:51:32.247Z,9.07
2019-05-10T10:53:59.208Z,4.87
2019-05-10T10:56:28.906Z,7.53
2019-05-10T10:58:58.659Z,8.67
2019-05-10T11:01:33.182Z,6.60
2019-05-10T11:04:03.616Z,5.60
2019-05-10T11:06:31.312Z,9.73
2019-05-10T11:09:01.793Z,6.33
2019-05-10T11:11:39.117Z,5.90
2019-05-10T11:14:07.247Z,4.80
2019-05-10T11:16:36.090Z,6.10
2019-05-10T11:19:13.316Z,5.03
2019-05-10T11:21:37.243Z,5.70
2019-05-10T11:24:10.420Z,6.83
2019-05-10T11:26:40.564Z,6.43
2019-05-10T11:29:15.890Z,8.10
2019-05-10T11:31:41.546Z,7.13
2019-05-10T11:34:12.243Z,5.10
2019-05-10T11:36:46.029Z,5.00
2019-05-10T11:39:25.742Z,6.93
2019-05-10T11:41:44.916Z,5.67
2019-05-10T11:44:14.673Z,3.87
2019-05-10T11:46:44.465Z,4.30
2019-05-10T11:49:14.221Z,5.50
2019-05-10T11:51:47.827Z,3.57
2019-05-10T11:54:15.410Z,4.13
2019-05-10T11:56:45.099Z,3.73
2019-05-10T11:59:16.404Z,2.93
2019-05-10T12:01:55.002Z,5.67
2019-05-10T12:04:27.502Z,3.13
2019-05-10T12:06:51.408Z,3.97
2019-05-10T12:09:24.535Z,6.37
2019-05-10T12:11:56.747Z,6.37
2019-05-10T12:14:24.619Z,5.97
2019-05-10T12:16:54.874Z,3.37
2019-05-10T12:19:24.639Z,3.20
2019-05-10T12:21:56.035Z,3.37
2019-05-10T12:24:38.981Z,2.00
2019-05-10T12:29:28.602Z,4.03
2019-05-10T12:31:58.434Z,3.70
2019-05-10T12:34:28.185Z,3.40
2019-05-10T12:37:03.832Z,3.77
2019-05-10T12:39:31.002Z,4.60
2019-05-10T12:42:00.935Z,1.03
2019-05-10T12:44:33.275Z,3.03
2019-05-10T12:47:02.131Z,2.23
2019-05-10T12:49:31.832Z,1.63
2019-05-10T12:52:03.328Z,4.13
2019-05-10T12:54:32.943Z,1.37
2019-05-10T13:00:52.361Z,1.83
2019-05-10T13:03:25.320Z,3.30
2019-05-10T13:05:53.310Z,1.47
2019-05-10T13:08:23.386Z,1.53
2019-05-10T13:10:53.082Z,1.60
2019-05-10T13:13:27.031Z,2.93
2019-05-10T13:15:54.216Z,1.60
2019-05-10T13:18:49.269Z,1.63
2019-05-10T13:20:55.265Z,1.50
2019-05-10T13:23:25.004Z,1.60
2019-05-10T13:25:54.723Z,1.37
2019-05-10T13:28:24.428Z,0.43
2019-05-10T13:30:54.117Z,0.60
2019-05-10T13:33:28.993Z,2.53
2019-05-10T13:36:05.236Z,2.10
2019-05-10T13:38:37.024Z,1.90
2019-05-10T13:41:06.276Z,2.07
2019-05-10T13:43:36.020Z,4.20
2019-05-10T13:46:05.849Z,3.73
2019-05-10T13:48:35.616Z,3.70
2019-05-10T13:51:05.440Z,3.57
2019-05-10T13:53:35.123Z,1.97
2019-05-10T13:56:07.675Z,1.90
2019-05-10T13:58:37.428Z,3.97
2019-05-10T14:01:13.091Z,5.03
2019-05-10T14:04:23.405Z,3.67
2019-05-10T14:06:53.251Z,1.17
2019-05-10T14:09:23.021Z,2.77
2019-05-10T14:11:52.707Z,3.20
2019-05-10T14:14:26.474Z,2.70
2019-05-10T14:16:54.008Z,3.63
2019-05-10T14:19:25.657Z,2.73
2019-05-10T14:21:55.342Z,2.63
2019-05-10T14:24:26.142Z,3.70
2019-05-10T14:26:57.003Z,2.50
2019-05-10T14:29:34.324Z,3.60
2019-05-10T14:31:58.698Z,2.27
2019-05-10T14:34:28.371Z,1.87
2019-05-10T14:36:58.117Z,2.83
2019-05-10T14:39:27.839Z,2.33
2019-05-10T14:41:57.556Z,3.20
2019-05-10T14:44:27.249Z,2.20
2019-05-10T14:46:56.979Z,1.77
2019-05-10T14:49:26.759Z,1.60
2019-05-10T14:51:59.236Z,1.97
2019-05-10T14:54:42.714Z,2.40
2019-05-10T14:56:59.503Z,2.43
2019-05-10T14:59:29.199Z,1.63
2019-05-10T15:01:59.359Z,2.13
2019-05-10T15:04:44.291Z,2.57
2019-05-10T15:07:00.452Z,2.70
2019-05-10T15:09:30.203Z,3.20
2019-05-10T15:11:59.898Z,2.63
2019-05-10T15:14:29.576Z,3.10
2019-05-10T15:16:59.331Z,1.67
2019-05-10T15:19:42.938Z,1.60
2019-05-10T15:22:18.463Z,1.80
2019-05-10T15:24:44.057Z,3.10
2019-05-10T15:27:16.261Z,4.87
2019-05-10T15:29:45.154Z,2.67
2019-05-10T15:32:14.867Z,4.03
2019-05-10T15:35:03.830Z,2.87
2019-05-10T15:37:17.760Z,4.00
2019-05-10T15:39:47.673Z,2.17
2019-05-10T15:42:17.381Z,2.97
2019-05-10T15:44:47.033Z,3.60
2019-05-10T15:47:20.688Z,3.47
2019-05-10T15:49:48.098Z,3.67
2019-05-10T15:52:18.209Z,7.03
2019-05-10T15:54:48.131Z,2.40
2019-05-10T15:57:20.296Z,2.50
2019-05-10T15:59:50.653Z,2.50
2019-05-10T16:02:20.524Z,3.37
2019-05-10T16:04:50.181Z,4.03
2019-05-10T16:07:20.932Z,5.70
2019-05-10T16:09:54.376Z,6.47
2019-05-10T16:12:22.203Z,2.33
2019-05-10T16:25:41.628Z,3.87
2019-05-10T16:28:06.287Z,3.70
2019-05-10T16:30:36.561Z,5.73
2019-05-10T16:33:09.892Z,2.90
2019-05-10T16:35:39.144Z,3.27
2019-05-10T16:38:09.069Z,3.27
2019-05-10T16:40:38.755Z,3.10
2019-05-10T16:43:13.424Z,4.03
2019-05-10T16:45:40.089Z,3.10
2019-05-10T16:48:09.770Z,2.70
2019-05-10T16:50:42.660Z,2.93
2019-05-10T16:53:12.481Z,1.77
2019-05-10T16:55:43.065Z,2.97
2019-05-10T16:58:15.150Z,2.70
2019-05-10T17:00:46.123Z,2.93
2019-05-10T17:03:18.372Z,1.97
2019-05-10T17:05:53.355Z,2.13
2019-05-10T17:08:19.579Z,3.67
2019-05-10T17:10:49.274Z,1.70
2019-05-10T17:13:18.957Z,1.53
2019-05-10T17:15:48.730Z,3.43
2019-05-10T17:18:20.009Z,2.47
2019-05-10T17:20:50.977Z,2.60
2019-05-10T17:23:21.269Z,1.83
2019-05-10T17:25:50.969Z,3.97
2019-05-10T17:28:20.769Z,2.40
2019-05-10T17:30:51.426Z,3.67
2019-05-10T17:33:21.138Z,3.83
2019-05-10T17:35:51.051Z,2.87
2019-05-10T17:38:20.752Z,2.27
2019-05-10T17:40:50.530Z,4.53
2019-05-10T17:43:22.541Z,2.73
2019-05-10T17:45:51.705Z,3.20
2019-05-10T17:48:21.436Z,1.90
2019-05-10T17:50:51.262Z,4.63
2019-05-10T17:53:20.943Z,6.30
2019-05-10T17:55:55.934Z,5.90
2019-05-10T17:58:22.261Z,3.33
2019-05-10T18:00:52.195Z,3.30
2019-05-10T18:03:21.912Z,2.70
2019-05-10T18:05:53.422Z,3.20
2019-05-10T18:08:23.047Z,3.47
2019-05-10T18:10:57.055Z,4.97
2019-05-10T18:13:24.203Z,4.47
2019-05-10T18:15:53.870Z,4.20
2019-05-10T18:18:23.636Z,4.97
2019-05-10T18:20:53.429Z,3.53
2019-05-10T18:23:23.232Z,3.80
2019-05-10T18:25:58.635Z,3.53
2019-05-10T18:28:24.477Z,5.63
2019-05-10T18:30:54.323Z,4.07
2019-05-10T18:33:31.139Z,6.77
2019-05-10T18:36:04.091Z,3.27
2019-05-10T18:38:39.023Z,9.23
2019-05-10T18:41:11.774Z,7.43
2019-05-10T18:43:43.419Z,3.33
2019-05-10T18:46:24.815Z,6.20
2019-05-10T18:48:57.217Z,2.07
2019-05-10T18:51:34.253Z,3.60
2019-05-10T18:54:02.375Z,3.67
2019-05-10T18:56:33.266Z,4.13
2019-05-10T18:59:07.450Z,2.90
2019-05-10T19:01:38.705Z,3.83
2019-05-10T19:04:07.404Z,5.20
2019-05-10T19:06:38.171Z,1.93
2019-05-10T19:09:08.026Z,4.33
2019-05-10T19:11:39.046Z,3.17
2019-05-10T19:14:18.392Z,5.13
2019-05-10T19:16:48.167Z,2.93
2019-05-10T19:19:17.871Z,3.57
2019-05-10T19:21:47.654Z,5.83
2019-05-10T19:24:17.385Z,3.73
2019-05-10T19:26:47.152Z,5.10
2019-05-10T19:29:17.111Z,3.30
2019-05-10T19:31:46.891Z,3.63
2019-05-10T19:34:17.282Z,3.33
2019-05-10T19:36:50.582Z,2.60
2019-05-10T19:39:20.349Z,5.47
2019-05-10T19:41:50.093Z,2.73
2019-05-10T19:44:19.915Z,4.13
2019-05-10T19:46:49.593Z,3.63
2019-05-10T19:49:19.334Z,2.97
2019-05-10T19:51:50.447Z,3.77
2019-05-10T19:54:21.317Z,3.43
2019-05-10T19:56:54.924Z,2.90
2019-05-10T19:59:23.759Z,3.90
2019-05-10T20:01:54.540Z,5.07
2019-05-10T20:04:24.261Z,3.77
2019-05-10T20:06:53.950Z,3.20
2019-05-10T20:09:24.693Z,3.53
2019-05-10T20:11:54.388Z,5.17
2019-05-10T20:14:24.090Z,4.47
2019-05-10T20:16:53.748Z,3.40
2019-05-10T20:19:24.500Z,4.20
2019-05-10T20:21:54.259Z,4.33
2019-05-10T20:24:23.953Z,3.27
2019-05-10T20:26:53.628Z,4.17
2019-05-10T20:29:23.529Z,2.70
2019-05-10T20:31:53.279Z,3.30
2019-05-10T20:34:24.414Z,2.73
2019-05-10T20:36:54.198Z,3.77
2019-05-10T20:39:23.931Z,3.93
2019-05-10T20:41:53.693Z,4.50
2019-05-10T20:44:24.090Z,6.17
2019-05-10T20:46:53.798Z,5.33
2019-05-10T20:49:23.610Z,5.23
2019-05-10T20:51:53.468Z,2.80
2019-05-10T20:54:23.149Z,7.13
2019-05-10T20:56:53.819Z,3.33
2019-05-10T20:59:45.294Z,2.43
2019-05-10T21:02:18.748Z,2.97
2019-05-10T21:04:48.428Z,3.03
2019-05-10T21:07:18.129Z,3.60
2019-05-10T21:09:47.886Z,5.90
2019-05-10T21:12:17.620Z,5.10
2019-05-10T21:14:47.377Z,6.37
2019-05-10T21:17:17.201Z,3.80
2019-05-10T21:19:46.869Z,3.23
2019-05-10T21:22:16.582Z,5.43
2019-05-10T21:24:46.274Z,3.47
2019-05-10T21:27:15.978Z,4.23
2019-05-10T21:29:45.736Z,5.60
2019-05-10T21:32:15.692Z,4.70
2019-05-10T21:34:45.381Z,4.07
2019-05-10T21:37:15.118Z,4.50
2019-05-10T21:39:44.850Z,3.80
2019-05-10T21:42:14.574Z,5.60
2019-05-10T21:44:44.337Z,5.87
2019-05-10T21:47:14.116Z,2.73
2019-05-10T21:49:43.936Z,6.00
2019-05-10T21:52:13.642Z,5.37
2019-05-10T21:54:43.411Z,2.50
2019-05-10T21:57:13.120Z,3.20
2019-05-10T21:59:43.282Z,2.43
2019-05-10T22:02:13.134Z,3.63
2019-05-10T22:04:42.834Z,2.17
2019-05-10T22:07:12.638Z,2.83
2019-05-10T22:09:42.316Z,2.23
2019-05-10T22:12:12.020Z,1.70
2019-05-10T22:14:41.684Z,1.97
2019-05-10T22:17:11.496Z,5.63
2019-05-10T22:19:41.193Z,4.40
2019-05-10T22:22:10.881Z,1.60
2019-05-10T22:24:40.634Z,1.57
2019-05-10T22:27:10.340Z,1.03
2019-05-10T22:29:40.027Z,0.87
2019-05-10T22:32:10.088Z,4.97
2019-05-10T22:34:39.753Z,2.17
2019-05-10T22:37:09.514Z,3.90
2019-05-10T22:39:39.279Z,2.87
2019-05-10T22:42:08.971Z,0.67
2019-05-10T22:44:38.684Z,0.60
2019-05-10T22:47:08.381Z,4.73
2019-05-10T22:49:38.280Z,3.43
2019-05-10T22:52:07.975Z,2.00
2019-05-10T22:54:37.691Z,0.50
2019-05-10T22:57:08.433Z,2.03
2019-05-10T22:59:38.122Z,1.03
2019-05-10T23:02:07.856Z,1.20
2019-05-10T23:04:37.563Z,1.60
2019-05-10T23:07:07.286Z,2.10
2019-05-10T23:09:37.150Z,3.80
2019-05-10T23:12:06.862Z,2.00
2019-05-10T23:14:36.513Z,2.27
2019-05-10T23:17:06.234Z,2.50
2019-05-10T23:19:35.988Z,1.77
2019-05-10T23:22:05.897Z,5.27
2019-05-10T23:24:38.481Z,2.17
2019-05-10T23:27:08.953Z,1.83
2019-05-10T23:29:38.684Z,2.30
2019-05-10T23:32:08.540Z,2.27
2019-05-10T23:34:38.221Z,0.63
2019-05-10T23:37:08.023Z,1.60
2019-05-10T23:39:41.061Z,0.93
2019-05-10T23:42:09.220Z,4.67
2019-05-10T23:44:38.914Z,1.17
2019-05-10T23:47:08.627Z,4.50
2019-05-10T23:49:38.346Z,1.50
2019-05-10T23:52:08.093Z,0.60
2019-05-10T23:54:37.917Z,4.17
2019-05-10T23:57:07.669Z,2.77
2019-05-10T23:59:37.400Z,1.53
